Time;durP1;ratioP1;P1;durP2;ratioP2;P2;SDS_P1;SDS_P2;PMS_P1;PMS_P2;Temp;Humidity;BMP_temperature;BMP_pressure;BME280_temperature;BME280_humidity;BME280_pressure;Samples;Min_cycle;Max_cycle;Signal;HPM_P1;HPM_P2
2021/09/26 00:01:40;;;;;;;;;;;;;;;24.62;46.35;101436.19;5122282;27;19916;-88
2021/09/26 00:04:05;;;;;;;;;;;;;;;24.68;46.32;101435.59;5122994;27;20005;-86
2021/09/26 00:06:31;;;;;;;;;;;;;;;24.66;46.17;101426.59;5122765;27;19927;-87
2021/09/26 00:08:56;;;;;;;;;;;;;;;24.87;45.61;101428.25;5122551;28;20369;-86
2021/09/26 00:11:21;;;;;;;;;;;;;;;24.84;45.53;101429.44;5122924;27;19920;-87
2021/09/26 00:13:47;;;;;;;;;;;;;;;24.86;45.59;101427.38;5122483;28;19911;-87
2021/09/26 00:16:12;;;;;;;;;;;;;;;24.69;46.10;101425.41;5125132;27;19934;-87
2021/09/26 00:18:38;;;;;;;;;;;;;;;24.75;46.02;101436.72;5122933;27;20041;-87
2021/09/26 00:21:04;;;;;;;;;;;;;;;24.54;46.27;101439.69;5120481;28;20368;-88
2021/09/26 00:23:32;;;;;;;;;;;;;;;24.14;47.90;101435.28;5121719;28;19915;-87
2021/09/26 00:25:57;;;;;;;;;;;;;;;24.73;46.18;101433.25;5121307;28;19916;-87
2021/09/26 00:28:22;;;;;;;;;;;;;;;24.83;45.92;101435.13;5120826;28;19916;-86
2021/09/26 00:30:48;;;;;;;;;;;;;;;24.87;45.63;101428.25;5121434;28;19937;-87
2021/09/26 00:33:14;;;;;;;;;;;;;;;24.77;46.00;101431.06;5121004;28;19916;-87
2021/09/26 00:35:39;;;;;;;;;;;;;;;24.83;45.83;101426.81;5120621;28;20013;-87
2021/09/26 00:38:05;;;;;;;;;;;;;;;24.78;46.04;101430.03;5120375;28;20344;-87
2021/09/26 00:40:30;;;;;;;;;;;;;;;24.70;46.40;101429.91;5121621;28;20030;-87
2021/09/26 00:42:56;;;;;;;;;;;;;;;24.02;48.75;101431.78;5121564;28;19942;-87
2021/09/26 00:45:21;;;;;;;;;;;;;;;24.23;48.71;101430.72;5120926;28;19970;-87
2021/09/26 00:47:47;;;;;;;;;;;;;;;24.14;48.45;101428.84;5121018;28;19915;-87
2021/09/26 00:50:12;;;;;;;;;;;;;;;24.33;48.46;101426.06;5120989;28;19915;-87
2021/09/26 00:52:38;;;;;;;;;;;;;;;23.78;49.58;101434.09;5119554;28;19923;-87
2021/09/26 00:55:04;;;;;;;;;;;;;;;23.53;50.92;101434.50;5120417;28;19929;-87
2021/09/26 00:57:30;;;;;;;;;;;;;;;23.33;51.35;101436.38;5120684;28;19962;-86
2021/09/26 00:59:58;;;;;;;;;;;;;;;22.70;54.02;101441.22;5121162;28;19915;-86
2021/09/26 01:02:23;;;;;;;;;;;;;;;22.41;55.13;101450.19;5121885;28;19954;-86
2021/09/26 01:04:48;;;;;;;;;;;;;;;22.80;53.77;101440.25;5120995;28;19915;-87
2021/09/26 01:07:20;;;;;;;;;;;;;;;23.14;52.99;101442.72;5121360;28;19916;-87
2021/09/26 01:10:03;;;;;;;;;;;;;;;23.97;49.81;101431.34;5120446;28;19915;-87
2021/09/26 01:12:38;;;;;;;;;;;;;;;23.96;49.60;101431.50;5122581;27;19982;-88
2021/09/26 01:15:11;;;;;;;;;;;;;;;23.53;51.10;101430.88;5124853;27;19922;-87
2021/09/26 01:17:38;;;;;;;;;;;;;;;24.05;49.63;101412.16;5124797;27;20380;-87
2021/09/26 01:20:21;;;;;;;;;;;;;;;24.16;49.40;101413.03;5125633;27;19945;-89
2021/09/26 01:23:05;;;;;;;;;;;;;;;23.74;49.74;101405.03;5125379;27;19969;-87
2021/09/26 01:25:33;;;;;;;;;;;;;;;23.77;50.41;101405.59;5124884;27;19923;-86
2021/09/26 01:28:18;;;;;;;;;;;;;;;23.73;50.25;101401.38;5125339;27;19915;-86
2021/09/26 01:30:58;;;;;;;;;;;;;;;24.12;48.87;101406.03;5127817;27;20006;-86
2021/09/26 01:33:23;;;;;;;;;;;;;;;24.01;49.32;101401.53;5132154;27;19923;-86
2021/09/26 01:36:02;;;;;;;;;;;;;;;24.02;48.76;101398.63;5129926;27;19941;-87
2021/09/26 01:38:34;;;;;;;;;;;;;;;23.66;50.14;101403.84;5128456;27;19916;-87
2021/09/26 01:41:02;;;;;;;;;;;;;;;23.82;50.00;101405.16;5132016;27;19916;-86
2021/09/26 01:43:34;;;;;;;;;;;;;;;24.15;48.47;101394.69;5126234;27;19915;-87
2021/09/26 01:46:01;;;;;;;;;;;;;;;23.73;49.61;101389.44;5124584;27;19964;-87
2021/09/26 01:48:47;;;;;;;;;;;;;;;23.74;50.00;101391.22;5143632;27;19923;-87
2021/09/26 01:51:15;;;;;;;;;;;;;;;23.50;50.90;101395.25;5123389;27;19947;-88
2021/09/26 01:53:42;;;;;;;;;;;;;;;22.96;52.18;101394.69;5124338;27;19916;-88
2021/09/26 01:56:08;;;;;;;;;;;;;;;22.86;53.01;101389.16;5124874;27;20001;-87
2021/09/26 01:58:33;;;;;;;;;;;;;;;22.73;53.26;101391.28;5125733;27;19915;-87
2021/09/26 02:00:59;;;;;;;;;;;;;;;22.17;55.71;101396.19;5124093;27;19987;-88
2021/09/26 02:03:25;;;;;;;;;;;;;;;22.50;54.14;101391.47;5125011;27;20369;-87
2021/09/26 02:05:52;;;;;;;;;;;;;;;23.23;51.94;101385.78;5124838;27;19915;-87
2021/09/26 02:08:18;;;;;;;;;;;;;;;23.84;50.06;101383.78;5142704;27;19915;-88
2021/09/26 02:10:44;;;;;;;;;;;;;;;24.01;48.96;101387.72;5124063;27;19915;-88
2021/09/26 02:13:11;;;;;;;;;;;;;;;24.17;48.66;101387.09;5125609;27;19915;-87
2021/09/26 02:15:37;;;;;;;;;;;;;;;23.73;49.84;101389.44;5124405;27;19916;-88
2021/09/26 02:18:04;;;;;;;;;;;;;;;23.45;50.88;101387.41;5123830;27;19915;-88
2021/09/26 02:20:29;;;;;;;;;;;;;;;23.88;49.91;101393.53;5124817;27;19915;-88
2021/09/26 02:22:56;;;;;;;;;;;;;;;22.61;53.25;101402.41;5124875;27;19915;-87
2021/09/26 02:25:22;;;;;;;;;;;;;;;23.28;51.59;101393.63;5125036;27;20120;-88
2021/09/26 02:27:48;;;;;;;;;;;;;;;23.13;51.99;101404.19;5123866;27;20376;-88
2021/09/26 02:30:13;;;;;;;;;;;;;;;22.93;52.91;101401.38;5143221;27;19915;-86
2021/09/26 02:32:39;;;;;;;;;;;;;;;23.04;52.24;101396.75;5124562;27;19916;-88
2021/09/26 02:35:05;;;;;;;;;;;;;;;23.45;51.04;101398.47;5123704;27;19915;-88
2021/09/26 02:37:30;;;;;;;;;;;;;;;22.82;52.95;101390.44;5124857;27;20454;-87
2021/09/26 02:39:56;;;;;;;;;;;;;;;23.00;52.31;101393.41;5124255;27;19916;-88
2021/09/26 02:42:25;;;;;;;;;;;;;;;23.67;50.33;101389.03;5124446;27;19987;-88
2021/09/26 02:45:01;;;;;;;;;;;;;;;23.71;50.20;101387.69;5125167;27;19919;-87
2021/09/26 02:47:29;;;;;;;;;;;;;;;23.48;51.11;101389.88;5125703;27;19899;-87
2021/09/26 02:49:55;;;;;;;;;;;;;;;22.80;53.10;101390.59;5128340;27;19915;-86
2021/09/26 02:52:21;;;;;;;;;;;;;;;23.30;51.52;101392.47;5133172;27;19915;-88
2021/09/26 02:54:46;;;;;;;;;;;;;;;23.08;51.78;101406.50;5134204;27;19924;-87
2021/09/26 02:57:12;;;;;;;;;;;;;;;23.09;52.30;101402.72;5128073;27;20296;-87
2021/09/26 02:59:37;;;;;;;;;;;;;;;22.13;54.62;101398.34;5131121;27;19916;-86
2021/09/26 03:02:03;;;;;;;;;;;;;;;22.52;54.66;101396.84;5139026;27;19930;-87
2021/09/26 03:04:29;;;;;;;;;;;;;;;22.67;54.08;101395.47;5141263;27;19904;-86
2021/09/26 03:06:54;;;;;;;;;;;;;;;23.68;50.92;101385.22;5140940;27;19926;-87
2021/09/26 03:09:19;;;;;;;;;;;;;;;22.96;53.41;101384.53;5126708;27;19923;-88
2021/09/26 03:11:45;;;;;;;;;;;;;;;23.45;50.87;101368.09;5126868;27;19922;-87
2021/09/26 03:14:10;;;;;;;;;;;;;;;23.52;50.78;101371.13;5124544;27;19916;-87
2021/09/26 03:16:35;;;;;;;;;;;;;;;23.38;51.59;101379.84;5122892;27;19962;-86
2021/09/26 03:19:01;;;;;;;;;;;;;;;23.10;52.40;101375.03;5122685;27;19915;-88
2021/09/26 03:21:27;;;;;;;;;;;;;;;23.56;51.38;101372.59;5122503;27;19960;-86
2021/09/26 03:23:53;;;;;;;;;;;;;;;23.63;50.43;101375.66;5121708;27;19923;-86
2021/09/26 03:26:18;;;;;;;;;;;;;;;22.91;53.03;101372.19;5121066;27;19976;-87
2021/09/26 03:28:43;;;;;;;;;;;;;;;23.34;51.45;101371.84;5140677;27;19927;-87
2021/09/26 03:31:09;;;;;;;;;;;;;;;23.08;52.76;101376.13;5122532;27;20011;-87
2021/09/26 03:33:34;;;;;;;;;;;;;;;24.11;49.68;101366.47;5122769;27;19916;-88
2021/09/26 03:35:59;;;;;;;;;;;;;;;23.59;50.67;101361.25;5122334;27;19903;-87
2021/09/26 03:38:24;;;;;;;;;;;;;;;23.95;49.54;101367.06;5122288;27;19915;-87
2021/09/26 03:40:50;;;;;;;;;;;;;;;23.15;52.01;101358.88;5120969;27;19915;-87
2021/09/26 03:43:16;;;;;;;;;;;;;;;23.23;52.27;101355.41;5121416;27;19922;-87
2021/09/26 03:45:42;;;;;;;;;;;;;;;23.75;51.02;101354.25;5105443;27;19923;-88
2021/09/26 03:48:08;;;;;;;;;;;;;;;22.97;53.33;101355.06;5122744;27;19915;-87
2021/09/26 03:50:34;;;;;;;;;;;;;;;23.16;52.57;101351.50;5124888;27;19930;-87
2021/09/26 03:52:59;;;;;;;;;;;;;;;23.35;51.88;101343.22;5125158;27;19911;-85
2021/09/26 03:55:24;;;;;;;;;;;;;;;22.65;54.89;101345.09;5124496;27;19923;-88
2021/09/26 03:57:49;;;;;;;;;;;;;;;22.65;54.75;101350.59;5124261;27;19915;-87
2021/09/26 04:00:16;;;;;;;;;;;;;;;22.98;53.99;101354.91;5124536;27;19915;-87
2021/09/26 04:02:42;;;;;;;;;;;;;;;22.61;54.80;101352.75;5123711;27;19920;-87
2021/09/26 04:05:08;;;;;;;;;;;;;;;22.33;55.29;101359.91;5124672;27;20399;-86
2021/09/26 04:07:33;;;;;;;;;;;;;;;22.36;56.00;101356.88;5125976;27;19922;-88
2021/09/26 04:09:58;;;;;;;;;;;;;;;22.39;56.25;101355.72;5137891;27;20341;-87
2021/09/26 04:12:24;;;;;;;;;;;;;;;22.58;55.73;101352.19;5138689;27;19906;-86
2021/09/26 04:14:49;;;;;;;;;;;;;;;22.41;55.55;101357.31;5136525;27;20002;-87
2021/09/26 04:17:14;;;;;;;;;;;;;;;21.71;57.90;101356.13;5131419;28;19915;-87
2021/09/26 04:19:39;;;;;;;;;;;;;;;22.06;57.00;101357.69;5129411;27;19937;-87
2021/09/26 04:22:05;;;;;;;;;;;;;;;22.45;56.12;101355.16;5125552;28;20380;-86
2021/09/26 04:24:30;;;;;;;;;;;;;;;21.98;57.23;101351.97;5123110;28;19930;-87
2021/09/26 04:26:55;;;;;;;;;;;;;;;22.58;55.39;101360.44;5122714;28;20483;-87
2021/09/26 04:29:21;;;;;;;;;;;;;;;22.87;54.37;101355.00;5122811;28;19900;-87
2021/09/26 04:31:46;;;;;;;;;;;;;;;22.42;55.89;101359.09;5123925;28;19916;-86
2021/09/26 04:34:12;;;;;;;;;;;;;;;22.81;54.72;101350.06;5122106;28;19926;-88
2021/09/26 04:36:37;;;;;;;;;;;;;;;22.13;56.68;101357.00;5122056;28;19922;-87
2021/09/26 04:39:03;;;;;;;;;;;;;;;22.71;54.73;101354.69;5123037;28;20026;-87
2021/09/26 04:41:29;;;;;;;;;;;;;;;22.38;56.50;101349.34;5122407;28;19923;-87
2021/09/26 04:43:54;;;;;;;;;;;;;;;22.02;57.37;101351.56;5121738;28;20295;-87
2021/09/26 04:46:19;;;;;;;;;;;;;;;22.64;55.57;101358.00;5122836;28;19915;-87
2021/09/26 04:48:44;;;;;;;;;;;;;;;22.82;54.99;101363.72;5146998;27;19916;-87
2021/09/26 04:51:10;;;;;;;;;;;;;;;22.37;55.88;101369.63;5126529;27;20014;-87
2021/09/26 04:53:35;;;;;;;;;;;;;;;22.24;57.15;101364.31;5125273;27;19919;-86
2021/09/26 04:56:00;;;;;;;;;;;;;;;21.94;57.66;101365.16;5126609;27;19969;-87
2021/09/26 04:58:28;;;;;;;;;;;;;;;22.54;56.76;101356.22;5125053;27;20333;-86
2021/09/26 05:00:54;;;;;;;;;;;;;;;21.88;58.36;101352.78;5125517;27;19916;-86
2021/09/26 05:03:19;;;;;;;;;;;;;;;22.04;57.71;101345.91;5125934;27;19951;-86
2021/09/26 05:05:45;;;;;;;;;;;;;;;21.81;58.70;101351.56;5125737;27;19937;-86
2021/09/26 05:08:10;;;;;;;;;;;;;;;22.40;57.26;101358.31;5126122;27;19922;-88
2021/09/26 05:10:35;;;;;;;;;;;;;;;21.92;59.06;101347.88;5125690;27;19951;-87
2021/09/26 05:13:00;;;;;;;;;;;;;;;22.09;58.77;101354.66;5126043;27;19916;-87
2021/09/26 05:15:26;;;;;;;;;;;;;;;21.97;59.43;101348.34;5125760;27;20017;-87
2021/09/26 05:17:52;;;;;;;;;;;;;;;22.35;58.01;101359.78;5126604;27;19990;-87
2021/09/26 05:20:17;;;;;;;;;;;;;;;22.41;57.77;101362.84;5125427;27;19915;-86
2021/09/26 05:22:43;;;;;;;;;;;;;;;22.17;59.43;101353.97;5125471;27;20392;-85
2021/09/26 05:25:08;;;;;;;;;;;;;;;22.66;58.23;101346.81;5124956;27;19923;-85
2021/09/26 05:27:34;;;;;;;;;;;;;;;22.57;58.12;101348.56;5124226;27;19915;-88
2021/09/26 05:29:59;;;;;;;;;;;;;;;21.89;60.41;101348.13;5143229;27;19968;-87
2021/09/26 05:32:24;;;;;;;;;;;;;;;22.71;57.60;101354.69;5125152;27;19962;-87
2021/09/26 05:34:49;;;;;;;;;;;;;;;23.00;56.73;101355.63;5143108;27;20288;-86
2021/09/26 05:37:15;;;;;;;;;;;;;;;23.38;55.79;101349.47;5124862;27;19919;-86
2021/09/26 05:39:40;;;;;;;;;;;;;;;23.39;55.36;101354.84;5124569;27;20411;-87
2021/09/26 05:42:06;;;;;;;;;;;;;;;23.33;55.52;101349.91;5124820;27;19988;-83
2021/09/26 05:44:36;;;;;;;;;;;;;;;23.50;55.58;101346.41;5124130;27;19924;-88
2021/09/26 05:47:02;;;;;;;;;;;;;;;24.03;53.20;101350.59;5123876;27;20445;-87
2021/09/26 05:49:27;;;;;;;;;;;;;;;24.24;52.52;101347.63;5143753;27;19915;-87
2021/09/26 05:51:52;;;;;;;;;;;;;;;24.62;51.56;101342.13;5124730;27;19937;-88
2021/09/26 05:54:19;;;;;;;;;;;;;;;24.39;51.98;101348.03;5143010;27;19967;-86
2021/09/26 05:56:44;;;;;;;;;;;;;;;24.59;51.36;101350.75;5124000;27;19903;-86
2021/09/26 05:59:09;;;;;;;;;;;;;;;24.49;52.08;101348.00;5123418;27;19922;-87
2021/09/26 06:01:34;;;;;;;;;;;;;;;24.14;52.71;101354.22;5141669;27;19930;-85
2021/09/26 06:04:00;;;;;;;;;;;;;;;24.10;52.98;101355.56;5124193;27;19916;-88
2021/09/26 06:06:25;;;;;;;;;;;;;;;24.29;52.70;101362.91;5143330;27;20394;-89
2021/09/26 06:08:50;;;;;;;;;;;;;;;24.31;52.51;101360.88;5125134;27;19919;-86
2021/09/26 06:11:15;;;;;;;;;;;;;;;23.89;54.00;101360.22;5125366;27;19915;-89
2021/09/26 06:13:41;;;;;;;;;;;;;;;23.76;54.16;101358.78;5124783;27;19979;-91
2021/09/26 06:16:06;;;;;;;;;;;;;;;24.30;52.70;101354.47;5124976;27;20010;-88
2021/09/26 06:18:34;;;;;;;;;;;;;;;24.51;51.73;101351.47;5156912;27;19923;-84
2021/09/26 06:21:02;;;;;;;;;;;;;;;24.46;52.24;101353.84;5152769;27;19938;-87
2021/09/26 06:23:27;;;;;;;;;;;;;;;24.51;52.21;101351.47;5131924;27;20002;-88
2021/09/26 06:25:53;;;;;;;;;;;;;;;24.21;53.35;101347.06;5128310;27;19967;-89
2021/09/26 06:28:18;;;;;;;;;;;;;;;24.11;53.54;101349.00;5137510;27;19915;-84
2021/09/26 06:30:43;;;;;;;;;;;;;;;24.02;54.06;101348.00;5154617;27;20039;-88
2021/09/26 06:33:08;;;;;;;;;;;;;;;23.33;56.48;101359.06;5141930;27;19939;-85
2021/09/26 06:35:34;;;;;;;;;;;;;;;23.78;55.30;101360.38;5158272;27;19956;-89
2021/09/26 06:38:00;;;;;;;;;;;;;;;24.04;54.94;101359.78;5149340;27;19965;-88
2021/09/26 06:40:25;;;;;;;;;;;;;;;23.97;55.40;101366.91;5137586;27;19966;-88
2021/09/26 06:42:50;;;;;;;;;;;;;;;24.87;52.51;101367.38;5136014;27;19915;-88
2021/09/26 06:45:16;;;;;;;;;;;;;;;24.77;52.21;101361.88;5133775;27;19923;-86
2021/09/26 06:47:42;;;;;;;;;;;;;;;24.33;53.12;101365.22;5151483;27;19966;-86
2021/09/26 06:50:08;;;;;;;;;;;;;;;24.10;55.15;101373.00;5160771;27;19961;-89
2021/09/26 06:52:33;;;;;;;;;;;;;;;23.64;56.11;101382.91;5133806;27;19979;-87
2021/09/26 06:54:58;;;;;;;;;;;;;;;24.40;53.60;101377.44;5138996;27;20395;-87
2021/09/26 06:57:26;;;;;;;;;;;;;;;23.60;56.23;101385.09;5157197;27;19923;-87
2021/09/26 06:59:51;;;;;;;;;;;;;;;23.45;56.41;101392.06;5141940;27;19923;-86
2021/09/26 07:02:21;;;;;;;;;;;;;;;23.87;55.78;101397.34;5145059;27;19915;-87
2021/09/26 07:04:47;;;;;;;;;;;;;;;23.30;57.65;101402.66;5126928;27;19916;-88
2021/09/26 07:07:12;;;;;;;;;;;;;;;23.06;58.14;101392.84;5144128;27;19944;-89
2021/09/26 07:09:39;;;;;;;;;;;;;;;22.79;59.56;101385.22;5144881;27;20311;-88
2021/09/26 07:12:05;;;;;;;;;;;;;;;23.57;57.67;101382.63;5125707;27;20261;-84
2021/09/26 07:14:30;;;;;;;;;;;;;;;23.87;56.46;101387.16;5126121;27;19926;-89
2021/09/26 07:16:55;;;;;;;;;;;;;;;23.23;58.18;101395.97;5125935;27;19922;-86
2021/09/26 07:19:21;;;;;;;;;;;;;;;22.84;59.19;101393.91;5124979;27;19916;-87
2021/09/26 07:21:46;;;;;;;;;;;;;;;23.50;58.26;101395.25;5143869;27;19912;-86
2021/09/26 07:24:12;;;;;;;;;;;;;;;23.28;58.92;101396.38;5143168;27;19919;-87
2021/09/26 07:26:37;;;;;;;;;;;;;;;24.38;55.56;101390.56;5125071;27;19926;-89
2021/09/26 07:29:02;;;;;;;;;;;;;;;24.52;55.53;101393.84;5127080;27;19923;-84
2021/09/26 07:31:27;;;;;;;;;;;;;;;24.32;56.01;101396.69;5145777;27;20154;-84
2021/09/26 07:33:53;;;;;;;;;;;;;;;24.72;54.73;101391.91;5149924;27;19933;-84
2021/09/26 07:36:18;;;;;;;;;;;;;;;24.97;53.74;101384.81;5130285;27;19980;-83
2021/09/26 07:38:43;;;;;;;;;;;;;;;24.48;54.45;101389.66;5129905;27;20054;-86
2021/09/26 07:41:09;;;;;;;;;;;;;;;25.02;52.19;101382.44;5144579;27;19916;-85
2021/09/26 07:43:34;;;;;;;;;;;;;;;25.18;52.48;101386.41;5126669;27;19915;-86
2021/09/26 07:45:59;;;;;;;;;;;;;;;24.32;53.99;101382.84;5126927;27;19923;-83
2021/09/26 07:48:25;;;;;;;;;;;;;;;25.28;51.75;101381.69;5142726;27;20410;-85
2021/09/26 07:50:52;;;;;;;;;;;;;;;25.46;51.53;101379.81;5123706;27;20489;-84
2021/09/26 07:53:18;;;;;;;;;;;;;;;26.53;48.62;101389.00;5123924;27;20074;-84
2021/09/26 07:55:43;;;;;;;;;;;;;;;26.06;49.69;101392.16;5122754;27;19998;-85
2021/09/26 07:58:08;;;;;;;;;;;;;;;25.62;51.03;101412.38;5122397;27;19959;-84
2021/09/26 08:00:34;;;;;;;;;;;;;;;25.74;50.21;101415.78;5123866;27;19921;-85
2021/09/26 08:02:59;;;;;;;;;;;;;;;25.13;52.55;101428.41;5142923;27;19916;-88
2021/09/26 08:05:24;;;;;;;;;;;;;;;24.51;54.82;101437.22;5142279;27;20452;-83
2021/09/26 08:07:49;;;;;;;;;;;;;;;25.28;53.20;101437.94;5120418;27;20455;-81
2021/09/26 08:10:15;;;;;;;;;;;;;;;25.77;51.25;101447.81;5136519;27;20002;-82
2021/09/26 08:12:40;;;;;;;;;;;;;;;26.24;50.88;101443.94;5118304;27;20002;-81
2021/09/26 08:15:05;;;;;;;;;;;;;;;25.99;50.36;101440.97;5137991;27;19984;-83
2021/09/26 08:17:31;;;;;;;;;;;;;;;26.94;47.84;101443.03;5136939;27;19916;-82
2021/09/26 08:19:57;;;;;;;;;;;;;;;26.99;46.72;101423.94;5137082;27;19916;-83
2021/09/26 08:22:22;;;;;;;;;;;;;;;27.15;47.30;101426.78;5136559;27;19920;-83
2021/09/26 08:24:47;;;;;;;;;;;;;;;27.15;47.47;101437.06;5137481;27;20002;-83
2021/09/26 08:27:13;;;;;;;;;;;;;;;27.52;46.51;101436.69;5118298;28;19940;-83
2021/09/26 08:29:39;;;;;;;;;;;;;;;28.10;44.53;101436.75;5119209;28;20284;-82
2021/09/26 08:32:05;;;;;;;;;;;;;;;26.49;47.70;101437.53;5137083;28;19922;-82
2021/09/26 08:34:30;;;;;;;;;;;;;;;27.90;44.77;101431.50;5119621;28;19940;-83
2021/09/26 08:36:56;;;;;;;;;;;;;;;27.63;44.81;101429.03;5141088;28;19916;-84
2021/09/26 08:39:21;;;;;;;;;;;;;;;26.84;47.78;101438.47;5124971;28;19942;-83
2021/09/26 08:41:50;;;;;;;;;;;;;;;27.70;45.63;101439.28;5140650;28;19983;-82
2021/09/26 08:44:15;;;;;;;;;;;;;;;27.76;45.59;101441.41;5138758;28;19930;-84
2021/09/26 08:46:40;;;;;;;;;;;;;;;27.81;46.21;101438.09;5120273;28;19984;-84
2021/09/26 08:49:06;;;;;;;;;;;;;;;27.15;46.86;101453.72;5138363;28;20368;-83
2021/09/26 08:51:31;;;;;;;;;;;;;;;27.75;45.20;101442.44;5140248;28;19962;-83
2021/09/26 08:53:56;;;;;;;;;;;;;;;26.61;46.87;101445.59;5121599;28;19966;-84
2021/09/26 08:56:22;;;;;;;;;;;;;;;27.69;45.34;101443.13;5118944;28;19970;-83
2021/09/26 08:58:48;;;;;;;;;;;;;;;27.18;46.50;101445.03;5137375;28;19973;-83
2021/09/26 09:01:14;;;;;;;;;;;;;;;26.90;46.50;101444.41;5119572;28;19915;-84
2021/09/26 09:03:39;;;;;;;;;;;;;;;28.34;43.76;101443.34;5119049;28;20422;-84
2021/09/26 09:06:04;;;;;;;;;;;;;;;28.18;43.63;101447.00;5120272;28;20357;-84
2021/09/26 09:08:29;;;;;;;;;;;;;;;28.07;42.76;101453.81;5119343;28;19926;-84
2021/09/26 09:10:56;;;;;;;;;;;;;;;27.55;44.65;101460.47;5118687;28;19916;-83
2021/09/26 09:13:29;;;;;;;;;;;;;;;28.04;43.85;101452.22;5137043;28;19915;-85
2021/09/26 09:15:59;;;;;;;;;;;;;;;27.73;44.56;101457.53;5117991;28;19916;-81
2021/09/26 09:18:25;;;;;;;;;;;;;;;27.94;43.72;101449.56;5117709;28;19923;-82
2021/09/26 09:20:51;;;;;;;;;;;;;;;27.89;43.36;101449.22;5118909;28;19916;-86
2021/09/26 09:23:21;;;;;;;;;;;;;;;28.14;43.21;101448.41;5119454;28;20280;-84
2021/09/26 09:25:46;;;;;;;;;;;;;;;28.60;42.70;101454.31;5118145;28;19976;-82
2021/09/26 09:28:11;;;;;;;;;;;;;;;28.59;42.24;101458.97;5118333;28;19932;-83
2021/09/26 09:30:38;;;;;;;;;;;;;;;27.92;43.38;101457.22;5118162;28;19916;-82
2021/09/26 09:33:04;;;;;;;;;;;;;;;28.23;42.37;101459.38;5119302;27;19915;-83
2021/09/26 09:35:55;;;;;;;;;;;;;;;27.80;43.16;101464.16;5139659;27;19923;-83
2021/09/26 09:38:27;;;;;;;;;;;;;;;27.50;43.70;101463.75;5117803;27;19922;-84
2021/09/26 09:40:52;;;;;;;;;;;;;;;28.21;43.04;101461.44;5121627;27;20292;-83
2021/09/26 09:43:17;;;;;;;;;;;;;;;27.89;43.85;101463.13;5120680;27;20364;-84
2021/09/26 09:45:47;;;;;;;;;;;;;;;28.23;41.90;101456.59;5121532;27;20503;-83
2021/09/26 09:48:17;;;;;;;;;;;;;;;28.89;40.57;101456.47;5121296;27;19926;-82
2021/09/26 09:51:02;;;;;;;;;;;;;;;27.97;42.24;101472.56;5121848;27;19927;-83
2021/09/26 09:53:30;;;;;;;;;;;;;;;28.33;41.93;101463.88;5121563;27;19950;-83
2021/09/26 09:55:56;;;;;;;;;;;;;;;28.65;40.91;101457.41;5121345;27;20276;-83
2021/09/26 09:58:22;;;;;;;;;;;;;;;29.46;39.80;101448.94;5121521;27;19923;-83
2021/09/26 10:00:52;;;;;;;;;;;;;;;29.73;39.21;101463.41;5124586;27;19919;-83
2021/09/26 10:03:36;;;;;;;;;;;;;;;28.96;40.48;101462.22;5129524;27;19918;-83
2021/09/26 10:06:03;;;;;;;;;;;;;;;29.85;38.88;101471.19;5132497;27;19937;-83
2021/09/26 10:08:34;;;;;;;;;;;;;;;28.83;39.38;101465.53;5147851;27;19907;-84
2021/09/26 10:11:06;;;;;;;;;;;;;;;29.86;38.22;101460.91;5130900;27;20009;-84
2021/09/26 10:13:32;;;;;;;;;;;;;;;29.54;38.90;101464.75;5130074;27;19915;-83
2021/09/26 10:15:57;;;;;;;;;;;;;;;29.05;39.14;101466.69;5149691;27;19979;-84
2021/09/26 10:18:22;;;;;;;;;;;;;;;31.03;36.55;101459.66;5132941;27;19922;-84
2021/09/26 10:20:48;;;;;;;;;;;;;;;30.23;37.48;101467.59;5129899;27;19931;-87
2021/09/26 10:23:13;;;;;;;;;;;;;;;28.88;39.22;101467.78;5130508;27;19923;-84
2021/09/26 10:25:39;;;;;;;;;;;;;;;29.82;37.79;101465.13;5126608;27;19927;-83
2021/09/26 10:28:05;;;;;;;;;;;;;;;30.52;36.75;101464.03;5130866;27;19994;-83
2021/09/26 10:30:30;;;;;;;;;;;;;;;29.94;38.33;101468.34;5137081;27;19946;-84
2021/09/26 10:32:56;;;;;;;;;;;;;;;29.63;39.17;101472.88;5143366;27;19919;-81
2021/09/26 10:35:22;;;;;;;;;;;;;;;30.13;37.98;101469.75;5143496;27;19941;-85
2021/09/26 10:37:47;;;;;;;;;;;;;;;29.84;37.92;101463.88;5161751;27;19919;-86
2021/09/26 10:40:14;;;;;;;;;;;;;;;29.31;39.44;101469.22;5142322;27;19958;-83
2021/09/26 10:42:40;;;;;;;;;;;;;;;29.35;38.92;101469.75;5157041;27;19941;-84
2021/09/26 10:45:06;;;;;;;;;;;;;;;29.40;39.22;101471.97;5139322;27;19959;-84
2021/09/26 10:47:32;;;;;;;;;;;;;;;28.91;38.91;101475.78;5160509;27;19954;-83
2021/09/26 10:50:01;;;;;;;;;;;;;;;29.42;37.67;101476.31;5142258;27;19967;-85
2021/09/26 10:52:27;;;;;;;;;;;;;;;28.98;38.57;101480.47;5141009;27;20295;-86
2021/09/26 10:55:18;;;;;;;;;;;;;;;29.16;38.06;101476.56;5141321;27;19922;-86
2021/09/26 10:58:11;;;;;;;;;;;;;;;28.95;38.94;101474.38;5133765;27;19923;-84
2021/09/26 11:00:38;;;;;;;;;;;;;;;29.60;37.10;101466.81;5094227;27;19962;-82
2021/09/26 11:03:09;;;;;;;;;;;;;;;29.31;38.75;101469.22;5140939;27;19922;-83
2021/09/26 11:05:36;;;;;;;;;;;;;;;29.71;37.21;101474.75;5140303;27;19915;-83
2021/09/26 11:08:02;;;;;;;;;;;;;;;29.36;37.72;101476.19;5140939;27;20328;-82
2021/09/26 11:10:34;;;;;;;;;;;;;;;29.79;36.42;101465.47;5140802;27;19911;-83
2021/09/26 11:13:08;;;;;;;;;;;;;;;28.80;37.49;101463.97;5159500;27;19915;-84
2021/09/26 11:15:33;;;;;;;;;;;;;;;30.12;36.44;101460.53;5140442;27;19915;-83
2021/09/26 11:17:59;;;;;;;;;;;;;;;30.35;35.49;101466.06;5138681;27;19915;-85
2021/09/26 11:20:24;;;;;;;;;;;;;;;28.76;38.75;101475.66;5140873;27;19915;-85
2021/09/26 11:23:10;;;;;;;;;;;;;;;29.80;35.89;101469.97;5142260;27;19922;-85
2021/09/26 11:25:54;;;;;;;;;;;;;;;30.27;36.57;101474.53;5125909;27;20065;-84
2021/09/26 11:28:22;;;;;;;;;;;;;;;28.56;37.38;101472.38;5118424;27;19971;-84
2021/09/26 11:30:48;;;;;;;;;;;;;;;29.53;36.84;101472.22;5119599;27;19918;-85
2021/09/26 11:33:13;;;;;;;;;;;;;;;29.98;35.24;101464.97;5137914;27;19915;-83
2021/09/26 11:35:38;;;;;;;;;;;;;;;30.04;34.06;101469.84;5119588;27;19916;-85
2021/09/26 11:38:05;;;;;;;;;;;;;;;29.02;35.60;101468.97;5118014;27;19919;-83
2021/09/26 11:40:49;;;;;;;;;;;;;;;29.17;35.52;101467.19;5116249;27;19915;-82
2021/09/26 11:43:15;;;;;;;;;;;;;;;28.92;36.45;101467.25;5123349;27;19928;-84
2021/09/26 11:45:41;;;;;;;;;;;;;;;29.87;35.96;101457.06;5114709;28;20377;-82
2021/09/26 11:48:12;;;;;;;;;;;;;;;30.16;34.62;101449.84;5113882;28;19941;-84
2021/09/26 11:50:39;;;;;;;;;;;;;;;31.72;33.19;101444.38;5132305;27;19919;-86
2021/09/26 11:53:04;;;;;;;;;;;;;;;30.02;35.26;101444.03;5137716;27;19923;-83
2021/09/26 11:55:30;;;;;;;;;;;;;;;29.42;36.65;101437.28;5136411;27;20368;-83
2021/09/26 11:57:57;;;;;;;;;;;;;;;30.67;35.10;101452.88;5133837;27;19919;-83
2021/09/26 12:00:24;;;;;;;;;;;;;;;30.19;35.90;101455.91;5134446;27;20292;-83
2021/09/26 12:02:49;;;;;;;;;;;;;;;31.20;34.43;101449.13;5135442;27;19923;-82
2021/09/26 12:05:15;;;;;;;;;;;;;;;29.61;36.54;101451.81;5135852;27;19915;-83
2021/09/26 12:07:40;;;;;;;;;;;;;;;29.78;36.81;101452.56;5121333;28;20007;-83
2021/09/26 12:10:15;;;;;;;;;;;;;;;30.29;35.96;101444.50;5121157;28;20390;-84
2021/09/26 12:12:40;;;;;;;;;;;;;;;29.53;37.89;101455.50;5118712;28;20010;-85
2021/09/26 12:15:07;;;;;;;;;;;;;;;29.13;38.38;101457.44;5119503;28;19927;-84
2021/09/26 12:17:33;;;;;;;;;;;;;;;30.15;36.46;101456.47;5112399;28;20042;-84
2021/09/26 12:20:04;;;;;;;;;;;;;;;30.14;36.74;101455.63;5115934;28;19916;-84
2021/09/26 12:22:30;;;;;;;;;;;;;;;30.35;35.93;101454.06;5127617;27;20357;-83
2021/09/26 12:24:57;;;;;;;;;;;;;;;29.07;38.52;101449.81;5122421;27;19919;-82
2021/09/26 12:27:33;;;;;;;;;;;;;;;29.32;38.47;101454.25;5124063;28;19950;-84
2021/09/26 12:29:58;;;;;;;;;;;;;;;30.11;37.35;101447.63;5129807;28;19998;-88
2021/09/26 12:32:25;;;;;;;;;;;;;;;30.29;37.35;101454.81;5126041;28;20015;-84
2021/09/26 12:34:51;;;;;;;;;;;;;;;29.89;37.06;101451.31;5125804;28;20377;-85